Cap Isabel — VRGA2 — position and weather

sailwx.info

Track history (hours):
 
Tides and Currents Weather Stations Pressure Air Temp Water Temp Dewpoint Dewpoint Depression Visibility Wind Speed Wind Dir Waves Ship Positions

Cap Isabel

Last reported at 2015-Aug-13 05:33 UTC. Time now 2015-Aug-29 16:55 UTC.
Position N 25°28' W 079°53'.
Warning: this ship's position is 16 days out of date.

Length 264 m; draft 10.3 m.

Type: Ship (hazmat cat C). MMSI: 477639500.

Date/timePositionNaut miles runAvg speedWind from/ knotsBaromVisibWave heightAir tempDewpointWater temp
2015-Aug-13 05:33N 25°28' W 079°53'1515.2
2015-Aug-13 04:34N 25°42' W 079°58'1515.3
2015-Aug-13 03:34N 25°57' W 080°02'10 9.6
2015-Aug-13 02:33N 26°05' W 080°07'1 1.1
2015-Aug-13 01:33N 26°04' W 080°07'0 0.0
2015-Aug-13 00:31N 26°04' W 080°07'0 0.0
2015-Aug-12 23:31N 26°04' W 080°07'0 0.0
2015-Aug-12 22:31N 26°04' W 080°07'0 0.0
2015-Aug-12 21:31N 26°04' W 080°07'0 0.0
2015-Aug-12 20:31N 26°04' W 080°07'0 0.0
2015-Aug-12 19:31N 26°04' W 080°07'0 0.0
2015-Aug-12 18:31N 26°04' W 080°07'0 0.0
2015-Aug-12 17:28N 26°04' W 080°07'0 0.0
2015-Aug-12 16:31N 26°04' W 080°07'0 0.0
2015-Aug-12 15:28N 26°04' W 080°07'1 0.8
2015-Aug-12 14:33N 26°05' W 080°07'4 3.9
2015-Aug-12 13:33N 26°06' W 080°03'1313.0
2015-Aug-12 12:33N 26°19' W 079°60'1514.8
2015-Aug-12 11:33N 26°33' W 079°57'1616.2
2015-Aug-12 10:33N 26°50' W 079°55'1616.3
2015-Aug-12 09:33N 27°06' W 079°56'23315.3
2015-Aug-11 18:25N 30°58' W 079°57'1214.2
2015-Aug-11 17:33N 31°10' W 079°54'2215.7
2015-Aug-11 16:11N 31°32' W 079°50'7114.3
2015-Aug-11 11:14N 32°43' W 079°47'6 0.5
2015-Aug-10 22:33N 32°46' W 079°53'1212.3
2015-Aug-10 21:34N 32°39' W 079°41'17411.6
2015-Aug-10 06:31N 34°01' W 076°36'1613.6
2015-Aug-10 05:20N 34°11' W 076°21'1214.0
2015-Aug-10 04:27N 34°19' W 076°10'21411.8
2015-Aug-09 10:15N 37°53' W 076°09'1419.5
2015-Aug-09 09:32N 38°06' W 076°13'2620.1
2015-Aug-09 08:14N 38°31' W 076°25'1319.3
2015-Aug-09 07:33N 38°44' W 076°26'1817.7
2015-Aug-09 06:34N 39°01' W 076°23'1111.2
2015-Aug-09 05:33N 39°12' W 076°29'5 5.1
2015-Aug-09 04:34N 39°15' W 076°33'0 0.0
2015-Aug-09 03:33N 39°15' W 076°33'0 0.0
2015-Aug-09 02:28N 39°15' W 076°33'0 0.0
2015-Aug-09 00:24N 39°15' W 076°33'0 0.0
2015-Aug-08 12:33N 39°15' W 076°33'0 0.4
2015-Aug-08 11:33N 39°15' W 076°33'7 7.3
2015-Aug-08 10:34N 39°10' W 076°26'1312.7
2015-Aug-08 09:33N 38°58' W 076°24'1919.1
2015-Aug-08 08:33N 38°38' W 076°25'4019.5
2015-Aug-08 06:30N 37°60' W 076°12'100 6.2
2015-Aug-07 14:23N 38°47' W 074°20'1011.8
2015-Aug-07 13:33N 38°56' W 074°16'1511.8
2015-Aug-07 12:17N 39°10' W 074°09'811.4
2015-Aug-07 11:33N 39°18' W 074°04'1211.7
2015-Aug-07 10:33N 39°29' W 073°59'1111.4
2015-Aug-07 09:33N 39°39' W 073°53'1211.6
2015-Aug-07 08:33N 39°51' W 073°52'1211.6
2015-Aug-07 07:32N 40°03' W 073°51'1210.9
2015-Aug-07 06:26N 40°14' W 073°50'8 9.6
2015-Aug-07 05:33N 40°23' W 073°49'10 9.7
2015-Aug-07 04:33N 40°30' W 073°57'1111.0
2015-Aug-07 03:33N 40°40' W 074°04'1 0.9
2015-Aug-07 02:33N 40°40' W 074°05'0 0.0
2015-Aug-07 01:33N 40°40' W 074°05'0 0.0
2015-Aug-07 00:33N 40°40' W 074°05'0 0.0
2015-Aug-06 23:33N 40°40' W 074°05'0 0.0
2015-Aug-06 22:33N 40°40' W 074°05'0 0.0
2015-Aug-06 21:33N 40°40' W 074°05'0 0.0
2015-Aug-06 20:33N 40°40' W 074°05'0 0.0
2015-Aug-06 19:33N 40°40' W 074°05'0 0.0
2015-Aug-06 18:33N 40°40' W 074°05'0 0.0
2015-Aug-06 17:33N 40°40' W 074°05'0 0.0
2015-Aug-06 16:33N 40°40' W 074°05'0 0.0
2015-Aug-06 15:33N 40°40' W 074°05'0 0.0
2015-Aug-06 14:33N 40°40' W 074°05'0 0.0
2015-Aug-06 13:33N 40°40' W 074°05'0 0.0
2015-Aug-06 12:33N 40°40' W 074°05'0 0.0
2015-Aug-06 11:33N 40°40' W 074°05'1 1.0
2015-Aug-06 10:33N 40°40' W 074°04'8 7.6
2015-Aug-06 09:33N 40°32' W 074°01'1111.0
2015-Aug-06 08:33N 40°27' W 073°48'8 8.1
2015-Aug-06 07:33N 40°19' W 073°46'9 8.9
2015-Aug-06 06:29N 40°10' W 073°45'2713.5
2015-Aug-06 04:28N 39°43' W 073°41'1213.5
2015-Aug-06 03:33N 39°31' W 073°44'1313.6
2015-Aug-06 02:33N 39°18' W 073°48'8413.4
2015-Aug-05 20:18N 37°56' W 074°10'1613.6
2015-Aug-05 19:09N 37°40' W 074°14'2213.7
2015-Aug-05 17:33N 37°19' W 074°20'67915.6
2015-Aug-03 22:08N 26°57' W 079°42'1217.2
2015-Aug-03 21:27N 26°45' W 079°44'1617.7
2015-Aug-03 20:34N 26°30' W 079°48'1616.1
2015-Aug-03 19:33N 26°14' W 079°54'1413.8
2015-Aug-03 18:33N 26°06' W 080°06'2 1.5
2015-Aug-03 17:31N 26°04' W 080°07'0 0.0
2015-Aug-03 16:31N 26°04' W 080°07'0 0.0
2015-Aug-03 15:31N 26°04' W 080°07'0 0.0
2015-Aug-03 14:31N 26°04' W 080°07'0 0.0
2015-Aug-03 13:31N 26°04' W 080°07'0 0.0
2015-Aug-03 12:31N 26°04' W 080°07'0 0.0
2015-Aug-03 11:31N 26°04' W 080°07'0 0.0
2015-Aug-03 10:31N 26°04' W 080°07'1 1.2
2015-Aug-03 09:33N 26°05' W 080°07'8 7.8
2015-Aug-03 08:33N 25°59' W 080°02'1616.4
2015-Aug-03 07:33N 25°43' W 079°57'1716.6
2015-Aug-03 06:33N 25°27' W 079°52'  
Track history (hours):
 
Tides and Currents Weather Stations Pressure Air Temp Water Temp Dewpoint Dewpoint Depression Visibility Wind Speed Wind Dir Waves Ship Positions

Cap Isabel

Last reported at 2015-Aug-13 05:33 UTC. Time now 2015-Aug-29 16:55 UTC.
Position N 25°28' W 079°53'.
Warning: this ship's position is 16 days out of date.

Length 264 m; draft 10.3 m.

Type: Ship (hazmat cat C). MMSI: 477639500.

Date/timePositionNaut miles runAvg speedWind from/ knotsBaromVisibWave heightAir tempDewpointWater temp
2015-Aug-13 05:33N 25°28' W 079°53'1515.2
2015-Aug-13 04:34N 25°42' W 079°58'1515.3
2015-Aug-13 03:34N 25°57' W 080°02'10 9.6
2015-Aug-13 02:33N 26°05' W 080°07'1 1.1
2015-Aug-13 01:33N 26°04' W 080°07'0 0.0
2015-Aug-13 00:31N 26°04' W 080°07'0 0.0
2015-Aug-12 23:31N 26°04' W 080°07'0 0.0
2015-Aug-12 22:31N 26°04' W 080°07'0 0.0
2015-Aug-12 21:31N 26°04' W 080°07'0 0.0
2015-Aug-12 20:31N 26°04' W 080°07'0 0.0
2015-Aug-12 19:31N 26°04' W 080°07'0 0.0
2015-Aug-12 18:31N 26°04' W 080°07'0 0.0
2015-Aug-12 17:28N 26°04' W 080°07'0 0.0
2015-Aug-12 16:31N 26°04' W 080°07'0 0.0
2015-Aug-12 15:28N 26°04' W 080°07'1 0.8
2015-Aug-12 14:33N 26°05' W 080°07'4 3.9
2015-Aug-12 13:33N 26°06' W 080°03'1313.0
2015-Aug-12 12:33N 26°19' W 079°60'1514.8
2015-Aug-12 11:33N 26°33' W 079°57'1616.2
2015-Aug-12 10:33N 26°50' W 079°55'1616.3
2015-Aug-12 09:33N 27°06' W 079°56'23315.3
2015-Aug-11 18:25N 30°58' W 079°57'1214.2
2015-Aug-11 17:33N 31°10' W 079°54'2215.7
2015-Aug-11 16:11N 31°32' W 079°50'7114.3
2015-Aug-11 11:14N 32°43' W 079°47'6 0.5
2015-Aug-10 22:33N 32°46' W 079°53'1212.3
2015-Aug-10 21:34N 32°39' W 079°41'17411.6
2015-Aug-10 06:31N 34°01' W 076°36'1613.6
2015-Aug-10 05:20N 34°11' W 076°21'1214.0
2015-Aug-10 04:27N 34°19' W 076°10'21411.8
2015-Aug-09 10:15N 37°53' W 076°09'1419.5
2015-Aug-09 09:32N 38°06' W 076°13'2620.1
2015-Aug-09 08:14N 38°31' W 076°25'1319.3
2015-Aug-09 07:33N 38°44' W 076°26'1817.7
2015-Aug-09 06:34N 39°01' W 076°23'1111.2
2015-Aug-09 05:33N 39°12' W 076°29'5 5.1
2015-Aug-09 04:34N 39°15' W 076°33'0 0.0
2015-Aug-09 03:33N 39°15' W 076°33'0 0.0
2015-Aug-09 02:28N 39°15' W 076°33'0 0.0
2015-Aug-09 00:24N 39°15' W 076°33'0 0.0
2015-Aug-08 12:33N 39°15' W 076°33'0 0.4
2015-Aug-08 11:33N 39°15' W 076°33'7 7.3
2015-Aug-08 10:34N 39°10' W 076°26'1312.7
2015-Aug-08 09:33N 38°58' W 076°24'1919.1
2015-Aug-08 08:33N 38°38' W 076°25'4019.5
2015-Aug-08 06:30N 37°60' W 076°12'100 6.2
2015-Aug-07 14:23N 38°47' W 074°20'1011.8
2015-Aug-07 13:33N 38°56' W 074°16'1511.8
2015-Aug-07 12:17N 39°10' W 074°09'811.4
2015-Aug-07 11:33N 39°18' W 074°04'1211.7
2015-Aug-07 10:33N 39°29' W 073°59'1111.4
2015-Aug-07 09:33N 39°39' W 073°53'1211.6
2015-Aug-07 08:33N 39°51' W 073°52'1211.6
2015-Aug-07 07:32N 40°03' W 073°51'1210.9
2015-Aug-07 06:26N 40°14' W 073°50'8 9.6
2015-Aug-07 05:33N 40°23' W 073°49'10 9.7
2015-Aug-07 04:33N 40°30' W 073°57'1111.0
2015-Aug-07 03:33N 40°40' W 074°04'1 0.9
2015-Aug-07 02:33N 40°40' W 074°05'0 0.0
2015-Aug-07 01:33N 40°40' W 074°05'0 0.0
2015-Aug-07 00:33N 40°40' W 074°05'0 0.0
2015-Aug-06 23:33N 40°40' W 074°05'0 0.0
2015-Aug-06 22:33N 40°40' W 074°05'0 0.0
2015-Aug-06 21:33N 40°40' W 074°05'0 0.0
2015-Aug-06 20:33N 40°40' W 074°05'0 0.0
2015-Aug-06 19:33N 40°40' W 074°05'0 0.0
2015-Aug-06 18:33N 40°40' W 074°05'0 0.0
2015-Aug-06 17:33N 40°40' W 074°05'0 0.0
2015-Aug-06 16:33N 40°40' W 074°05'0 0.0
2015-Aug-06 15:33N 40°40' W 074°05'0 0.0
2015-Aug-06 14:33N 40°40' W 074°05'0 0.0
2015-Aug-06 13:33N 40°40' W 074°05'0 0.0
2015-Aug-06 12:33N 40°40' W 074°05'0 0.0
2015-Aug-06 11:33N 40°40' W 074°05'1 1.0
2015-Aug-06 10:33N 40°40' W 074°04'8 7.6
2015-Aug-06 09:33N 40°32' W 074°01'1111.0
2015-Aug-06 08:33N 40°27' W 073°48'8 8.1
2015-Aug-06 07:33N 40°19' W 073°46'9 8.9
2015-Aug-06 06:29N 40°10' W 073°45'2713.5
2015-Aug-06 04:28N 39°43' W 073°41'1213.5
2015-Aug-06 03:33N 39°31' W 073°44'1313.6
2015-Aug-06 02:33N 39°18' W 073°48'8413.4
2015-Aug-05 20:18N 37°56' W 074°10'1613.6
2015-Aug-05 19:09N 37°40' W 074°14'2213.7
2015-Aug-05 17:33N 37°19' W 074°20'67915.6
2015-Aug-03 22:08N 26°57' W 079°42'1217.2
2015-Aug-03 21:27N 26°45' W 079°44'1617.7
2015-Aug-03 20:34N 26°30' W 079°48'1616.1
2015-Aug-03 19:33N 26°14' W 079°54'1413.8
2015-Aug-03 18:33N 26°06' W 080°06'2 1.5
2015-Aug-03 17:31N 26°04' W 080°07'0 0.0
2015-Aug-03 16:31N 26°04' W 080°07'0 0.0
2015-Aug-03 15:31N 26°04' W 080°07'0 0.0
2015-Aug-03 14:31N 26°04' W 080°07'0 0.0
2015-Aug-03 13:31N 26°04' W 080°07'0 0.0
2015-Aug-03 12:31N 26°04' W 080°07'0 0.0
2015-Aug-03 11:31N 26°04' W 080°07'0 0.0
2015-Aug-03 10:31N 26°04' W 080°07'1 1.2
2015-Aug-03 09:33N 26°05' W 080°07'8 7.8
2015-Aug-03 08:33N 25°59' W 080°02'1616.4
2015-Aug-03 07:33N 25°43' W 079°57'1716.6
2015-Aug-03 06:33N 25°27' W 079°52'  

Dump ship's entire track history